createdAt,value
2017-08-28T00:00:09.296Z,20
2017-08-28T00:02:07.346Z,20
2017-08-28T00:04:07.065Z,20
2017-08-28T00:06:16.944Z,20
2017-08-28T00:08:06.837Z,20
2017-08-28T00:10:09.148Z,20
2017-08-28T00:12:17.015Z,20
2017-08-28T00:14:11.767Z,20
2017-08-28T00:16:06.546Z,19
2017-08-28T00:18:09.027Z,20
2017-08-28T00:20:06.904Z,20
2017-08-28T00:22:06.604Z,20
2017-08-28T00:24:07.329Z,20
2017-08-28T00:26:07.167Z,20
2017-08-28T00:28:06.851Z,20
2017-08-28T00:30:06.581Z,20
2017-08-28T00:32:07.380Z,20
2017-08-28T00:34:09.629Z,20
2017-08-28T00:36:07.297Z,20
2017-08-28T00:38:07.200Z,20
2017-08-28T00:40:07.189Z,20
2017-08-28T00:42:09.412Z,20
2017-08-28T00:44:09.762Z,19
2017-08-28T00:46:06.569Z,20
2017-08-28T00:48:07.300Z,20
2017-08-28T00:50:09.599Z,20
2017-08-28T00:52:07.272Z,19
2017-08-28T00:54:06.951Z,19
2017-08-28T00:56:06.869Z,20
2017-08-28T00:58:06.694Z,19
2017-08-28T01:00:08.974Z,20
2017-08-28T01:02:09.217Z,19
2017-08-28T01:04:07.027Z,20
2017-08-28T01:06:09.333Z,19
2017-08-28T01:08:07.062Z,20
2017-08-28T01:10:06.907Z,19
2017-08-28T01:12:14.285Z,19
2017-08-28T01:14:06.980Z,19
2017-08-28T01:16:06.692Z,20
2017-08-28T01:18:06.640Z,19
2017-08-28T01:20:07.533Z,19
2017-08-28T01:22:17.329Z,20
2017-08-28T01:24:07.016Z,19
2017-08-28T01:26:06.713Z,19
2017-08-28T01:28:06.618Z,19
2017-08-28T01:30:09.820Z,19
2017-08-28T01:32:06.877Z,19
2017-08-28T01:34:11.701Z,19
2017-08-28T01:36:06.447Z,19
2017-08-28T01:38:07.230Z,19
2017-08-28T01:40:06.954Z,19
2017-08-28T01:42:09.254Z,19
2017-08-28T01:44:07.085Z,19
2017-08-28T01:46:09.331Z,19
2017-08-28T01:48:17.133Z,19
2017-08-28T01:50:06.857Z,19
2017-08-28T01:52:06.591Z,19
2017-08-28T01:54:12.305Z,19
2017-08-28T01:56:07.077Z,19
2017-08-28T01:58:14.380Z,19
2017-08-28T02:00:12.223Z,19
2017-08-28T02:02:17.068Z,19
2017-08-28T02:04:06.793Z,19
2017-08-28T02:06:06.483Z,19
2017-08-28T02:08:07.234Z,19
2017-08-28T02:10:06.912Z,19
2017-08-28T02:12:14.205Z,19
2017-08-28T02:14:07.158Z,19
2017-08-28T02:16:17.160Z,19
2017-08-28T02:18:07.171Z,19
2017-08-28T02:20:07.057Z,19
2017-08-28T02:22:09.350Z,19
2017-08-28T02:24:14.632Z,19
2017-08-28T02:26:07.343Z,19
2017-08-28T02:28:07.105Z,19
2017-08-28T02:30:16.920Z,19
2017-08-28T02:32:09.290Z,19
2017-08-28T02:34:12.066Z,19
2017-08-28T02:36:11.802Z,19
2017-08-28T02:38:06.623Z,19
2017-08-28T02:40:07.324Z,19
2017-08-28T02:42:07.046Z,19
2017-08-28T02:44:06.907Z,19
2017-08-28T02:46:11.662Z,19
2017-08-28T02:48:07.441Z,19
2017-08-28T02:50:07.261Z,19
2017-08-28T02:52:06.982Z,19
2017-08-28T02:54:09.233Z,19
2017-08-28T02:56:07.107Z,19
2017-08-28T02:58:06.824Z,19
2017-08-28T03:00:06.507Z,19
2017-08-28T03:02:07.577Z,19
2017-08-28T03:04:09.843Z,19
2017-08-28T03:06:14.173Z,19
2017-08-28T03:08:07.069Z,19
2017-08-28T03:10:11.840Z,19
2017-08-28T03:12:06.539Z,19
2017-08-28T03:14:07.359Z,19
2017-08-28T03:16:14.649Z,19
2017-08-28T03:18:14.132Z,19
2017-08-28T03:20:06.910Z,19
2017-08-28T03:22:06.616Z,19
2017-08-28T03:24:09.816Z,19
2017-08-28T03:26:09.082Z,19
2017-08-28T03:28:09.442Z,19
2017-08-28T03:30:07.131Z,19
2017-08-28T03:32:06.916Z,19
2017-08-28T03:34:06.691Z,19
2017-08-28T03:36:19.199Z,19
2017-08-28T03:38:14.708Z,19
2017-08-28T03:40:06.462Z,19
2017-08-28T03:42:09.727Z,19
2017-08-28T03:44:06.504Z,19
2017-08-28T03:46:17.350Z,19
2017-08-28T03:48:09.633Z,19
2017-08-28T03:50:12.588Z,19
2017-08-28T03:52:09.941Z,19
2017-08-28T03:54:14.177Z,19
2017-08-28T03:56:06.915Z,19
2017-08-28T03:58:06.687Z,19
2017-08-28T04:00:06.410Z,19
2017-08-28T04:02:07.318Z,19
2017-08-28T04:04:09.510Z,19
2017-08-28T04:06:09.783Z,19
2017-08-28T04:08:11.681Z,19
2017-08-28T04:10:09.852Z,19
2017-08-28T04:12:09.155Z,19
2017-08-28T04:14:06.878Z,19
2017-08-28T04:16:06.570Z,19
2017-08-28T04:18:09.041Z,19
2017-08-28T04:20:06.906Z,19
2017-08-28T04:22:06.659Z,19
2017-08-28T04:24:07.499Z,19
2017-08-28T04:26:09.755Z,19
2017-08-28T04:28:06.490Z,19
2017-08-28T04:30:07.249Z,19
2017-08-28T04:32:07.180Z,19
2017-08-28T04:34:06.902Z,19
2017-08-28T04:36:09.173Z,19
2017-08-28T04:38:07.185Z,19
2017-08-28T04:40:16.531Z,19
2017-08-28T04:42:11.614Z,19
2017-08-28T04:44:12.682Z,19
2017-08-28T04:46:07.411Z,19
2017-08-28T04:48:12.350Z,19
2017-08-28T04:50:07.367Z,19
2017-08-28T04:52:09.638Z,19
2017-08-28T04:54:12.443Z,19
2017-08-28T04:56:07.344Z,19
2017-08-28T04:58:14.641Z,19
2017-08-28T05:00:14.948Z,19
2017-08-28T05:02:06.689Z,19
2017-08-28T05:04:06.425Z,19
2017-08-28T05:06:09.732Z,19
2017-08-28T05:08:09.187Z,19
2017-08-28T05:10:09.466Z,19
2017-08-28T05:12:07.543Z,19
2017-08-28T05:14:07.277Z,19
2017-08-28T05:16:09.582Z,19
2017-08-28T05:18:09.058Z,19
2017-08-28T05:20:11.894Z,19
2017-08-28T05:22:09.118Z,19
2017-08-28T05:24:11.842Z,19
2017-08-28T05:26:12.549Z,19
2017-08-28T05:28:07.329Z,19
2017-08-28T05:30:09.559Z,19
2017-08-28T05:32:07.463Z,19
2017-08-28T05:34:09.710Z,19
2017-08-28T05:36:11.457Z,19
2017-08-28T05:38:09.970Z,19
2017-08-28T05:40:09.259Z,19
2017-08-28T05:42:11.975Z,19
2017-08-28T05:44:09.400Z,19
2017-08-28T05:46:12.183Z,19
2017-08-28T05:48:06.977Z,19
2017-08-28T05:50:09.358Z,20
2017-08-28T05:52:07.079Z,19
2017-08-28T05:54:09.394Z,19
2017-08-28T05:56:07.291Z,19
2017-08-28T05:58:07.108Z,19
2017-08-28T06:00:06.893Z,20
2017-08-28T06:02:06.845Z,20
2017-08-28T06:04:16.696Z,19
2017-08-28T06:06:06.599Z,20
2017-08-28T06:08:15.016Z,19
2017-08-28T06:10:09.285Z,19
2017-08-28T06:12:09.513Z,20
2017-08-28T06:14:12.294Z,20
2017-08-28T06:16:06.969Z,20
2017-08-28T06:18:09.425Z,20
2017-08-28T06:20:09.738Z,20
2017-08-28T06:22:06.450Z,20
2017-08-28T06:24:07.121Z,20
2017-08-28T06:26:06.958Z,20
2017-08-28T06:28:09.249Z,20
2017-08-28T06:30:06.952Z,20
2017-08-28T06:32:07.004Z,20
2017-08-28T06:34:09.220Z,20
2017-08-28T06:36:06.896Z,20
2017-08-28T06:38:09.266Z,22
2017-08-28T06:40:06.966Z,22
2017-08-28T06:42:06.984Z,22
2017-08-28T06:44:06.674Z,21
2017-08-28T06:46:09.941Z,21
2017-08-28T06:48:06.841Z,21
2017-08-28T06:50:17.021Z,22
2017-08-28T06:52:06.748Z,22
2017-08-28T06:54:09.034Z,22
2017-08-28T06:56:06.831Z,21
2017-08-28T06:58:19.168Z,20
2017-08-28T07:00:08.021Z,20
2017-08-28T07:02:07.071Z,21
2017-08-28T07:04:07.184Z,21
2017-08-28T07:06:09.429Z,21
2017-08-28T07:08:09.768Z,22
2017-08-28T07:10:06.509Z,21
2017-08-28T07:12:22.390Z,21
2017-08-28T07:14:07.477Z,21
2017-08-28T07:16:22.380Z,21
2017-08-28T07:18:07.282Z,21
2017-08-28T07:20:09.607Z,22
2017-08-28T07:22:09.806Z,21
2017-08-28T07:24:06.474Z,22
2017-08-28T07:26:07.400Z,21
2017-08-28T07:28:07.170Z,22
2017-08-28T07:30:12.019Z,21
2017-08-28T07:32:09.381Z,22
2017-08-28T07:34:09.658Z,21
2017-08-28T07:36:07.491Z,21
2017-08-28T07:38:07.386Z,21
2017-08-28T07:40:07.147Z,21
2017-08-28T07:42:06.875Z,21
2017-08-28T07:44:06.620Z,21
2017-08-28T07:46:14.906Z,20
2017-08-28T07:48:11.675Z,20
2017-08-28T07:50:09.991Z,20
2017-08-28T07:52:06.862Z,20
2017-08-28T07:54:09.105Z,20
2017-08-28T07:56:12.103Z,20
2017-08-28T07:58:06.772Z,20
2017-08-28T08:00:06.452Z,20
2017-08-28T08:02:19.839Z,20
2017-08-28T08:04:19.221Z,19
2017-08-28T08:06:06.947Z,19
2017-08-28T08:08:06.862Z,19
2017-08-28T08:10:09.060Z,19
2017-08-28T08:12:09.322Z,19
2017-08-28T08:14:09.629Z,19
2017-08-28T08:16:10.014Z,19
2017-08-28T08:18:06.918Z,19
2017-08-28T08:20:06.735Z,19
2017-08-28T08:22:08.968Z,19
2017-08-28T08:24:14.377Z,19
2017-08-28T08:26:07.244Z,18
2017-08-28T08:28:12.027Z,19
2017-08-28T08:30:06.802Z,19
2017-08-28T08:32:09.169Z,19
2017-08-28T08:34:06.861Z,18
2017-08-28T08:36:06.603Z,19
2017-08-28T08:38:12.407Z,19
2017-08-28T08:40:17.372Z,19
2017-08-28T08:42:12.175Z,19
2017-08-28T08:44:06.911Z,19
2017-08-28T08:46:06.753Z,19
2017-08-28T08:48:06.449Z,19
2017-08-28T08:50:09.710Z,19
2017-08-28T08:52:13.992Z,19
2017-08-28T08:54:06.699Z,19
2017-08-28T08:56:09.268Z,18
2017-08-28T08:58:07.050Z,18
2017-08-28T09:00:06.817Z,18
2017-08-28T09:02:06.616Z,18
2017-08-28T09:04:09.848Z,18
2017-08-28T09:06:06.587Z,18
2017-08-28T09:08:07.316Z,18
2017-08-28T09:10:07.129Z,18
2017-08-28T09:12:06.998Z,18
2017-08-28T09:14:09.217Z,18
2017-08-28T09:16:06.876Z,18
2017-08-28T09:18:06.802Z,18
2017-08-28T09:20:09.053Z,19
2017-08-28T09:22:09.320Z,18
2017-08-28T09:24:07.100Z,18
2017-08-28T09:26:09.552Z,18
2017-08-28T09:28:07.320Z,18
2017-08-28T09:30:12.063Z,18
2017-08-28T09:32:14.650Z,18
2017-08-28T09:34:09.905Z,18
2017-08-28T09:36:06.653Z,18
2017-08-28T09:38:07.705Z,18
2017-08-28T09:40:13.975Z,18
2017-08-28T09:42:06.625Z,18
2017-08-28T09:44:12.656Z,18
2017-08-28T09:46:09.896Z,18
2017-08-28T09:48:11.681Z,18
2017-08-28T09:50:10.284Z,18
2017-08-28T09:52:07.030Z,18
2017-08-28T09:54:06.743Z,18
2017-08-28T09:56:06.477Z,18
2017-08-28T09:58:07.387Z,18
2017-08-28T10:00:09.665Z,18
2017-08-28T10:02:07.743Z,18
2017-08-28T10:04:08.913Z,18
2017-08-28T10:06:06.608Z,18
2017-08-28T10:08:10.021Z,18
2017-08-28T10:10:11.842Z,18
2017-08-28T10:12:06.575Z,18
2017-08-28T10:14:07.828Z,18
2017-08-28T10:16:07.097Z,18
2017-08-28T10:18:09.579Z,18
2017-08-28T10:20:12.656Z,18
2017-08-28T10:22:12.444Z,18
2017-08-28T10:24:07.147Z,18
2017-08-28T10:26:09.350Z,18
2017-08-28T10:28:07.074Z,19
2017-08-28T10:30:06.775Z,19
2017-08-28T10:32:09.245Z,19
2017-08-28T10:34:10.116Z,19
2017-08-28T10:36:11.893Z,18
2017-08-28T10:38:06.966Z,19
2017-08-28T10:40:10.425Z,19
2017-08-28T10:42:11.743Z,19
2017-08-28T10:44:06.608Z,19
2017-08-28T10:46:09.800Z,18
2017-08-28T10:48:11.919Z,19
2017-08-28T10:50:09.544Z,20
2017-08-28T10:52:07.230Z,19
2017-08-28T10:54:06.894Z,20
2017-08-28T10:56:09.611Z,19
2017-08-28T10:58:07.541Z,19
2017-08-28T11:00:07.256Z,20
2017-08-28T11:02:07.076Z,19
2017-08-28T11:04:06.943Z,19
2017-08-28T11:06:06.804Z,20
2017-08-28T11:08:06.548Z,20
2017-08-28T11:10:07.288Z,21
2017-08-28T11:12:12.031Z,20
2017-08-28T11:14:06.902Z,20
2017-08-28T11:16:09.339Z,21
2017-08-28T11:18:09.790Z,21
2017-08-28T11:20:06.710Z,21
2017-08-28T11:22:06.393Z,21
2017-08-28T11:24:07.130Z,21
2017-08-28T11:26:07.940Z,21
2017-08-28T11:28:09.108Z,21
2017-08-28T11:30:06.873Z,21
2017-08-28T11:32:09.226Z,21
2017-08-28T11:34:07.725Z,21
2017-08-28T11:36:06.797Z,21
2017-08-28T11:38:11.541Z,21
2017-08-28T11:40:12.284Z,21
2017-08-28T11:42:07.902Z,21
2017-08-28T11:44:06.756Z,21
2017-08-28T11:46:06.662Z,22
2017-08-28T11:48:07.408Z,24
2017-08-28T11:50:07.270Z,21
2017-08-28T11:52:09.615Z,21
2017-08-28T11:54:07.401Z,21
2017-08-28T11:56:12.270Z,21
2017-08-28T11:58:17.152Z,21
2017-08-28T12:00:06.843Z,21
2017-08-28T12:02:06.556Z,21
2017-08-28T12:04:07.289Z,21
2017-08-28T12:06:09.539Z,22
2017-08-28T12:08:12.448Z,21
2017-08-28T12:10:14.669Z,21
2017-08-28T12:12:07.381Z,21
2017-08-28T12:14:07.201Z,21
2017-08-28T12:16:09.403Z,21
2017-08-28T12:18:07.286Z,20
2017-08-28T12:20:12.093Z,21
2017-08-28T12:22:11.881Z,20
2017-08-28T12:24:11.683Z,20
2017-08-28T12:26:07.684Z,20
2017-08-28T12:28:09.857Z,21
2017-08-28T12:30:06.571Z,21
2017-08-28T12:32:09.811Z,21
2017-08-28T12:34:06.506Z,20
2017-08-28T12:36:07.254Z,21
2017-08-28T12:38:07.159Z,21
2017-08-28T12:40:07.203Z,21
2017-08-28T12:42:06.927Z,21
2017-08-28T12:44:09.501Z,21
2017-08-28T12:46:14.830Z,20
2017-08-28T12:48:06.460Z,20
2017-08-28T12:50:07.158Z,21
2017-08-28T12:52:06.887Z,21
2017-08-28T12:54:09.109Z,21
2017-08-28T12:56:09.438Z,21
2017-08-28T12:58:07.159Z,21
2017-08-28T13:00:06.892Z,21
2017-08-28T13:02:06.657Z,21
2017-08-28T13:04:08.331Z,21
2017-08-28T13:06:07.109Z,21
2017-08-28T13:08:06.858Z,21
2017-08-28T13:10:06.560Z,21
2017-08-28T13:12:10.022Z,21
2017-08-28T13:14:09.289Z,21
2017-08-28T13:16:09.465Z,20
2017-08-28T13:18:07.398Z,21
2017-08-28T13:20:07.510Z,21
2017-08-28T13:22:07.653Z,21
2017-08-28T13:24:07.328Z,21
2017-08-28T13:26:07.028Z,21
2017-08-28T13:28:14.675Z,21
2017-08-28T13:30:10.081Z,20
2017-08-28T13:32:06.805Z,21
2017-08-28T13:34:06.501Z,21
2017-08-28T13:36:12.197Z,21
2017-08-28T13:38:07.120Z,21
2017-08-28T13:40:09.335Z,21
2017-08-28T13:42:08.033Z,21
2017-08-28T13:44:06.932Z,21
2017-08-28T13:46:06.635Z,21
2017-08-28T13:48:07.361Z,22
2017-08-28T13:50:07.068Z,22
2017-08-28T13:52:06.937Z,22
2017-08-28T13:54:06.730Z,22
2017-08-28T13:56:11.557Z,22
2017-08-28T13:58:07.311Z,22
2017-08-28T14:00:07.155Z,21
2017-08-28T14:02:12.234Z,21
2017-08-28T14:04:09.474Z,20
2017-08-28T14:06:12.268Z,19
2017-08-28T14:08:07.065Z,19
2017-08-28T14:10:06.832Z,20
2017-08-28T14:12:09.122Z,20
2017-08-28T14:14:09.515Z,20
2017-08-28T14:16:20.095Z,20
2017-08-28T14:18:07.029Z,19
2017-08-28T14:20:06.890Z,20
2017-08-28T14:22:06.652Z,20
2017-08-28T14:24:07.364Z,20
2017-08-28T14:26:12.288Z,19
2017-08-28T14:28:27.235Z,18
2017-08-28T14:30:06.975Z,19
2017-08-28T14:32:06.804Z,19
2017-08-28T14:34:09.072Z,19
2017-08-28T14:36:11.831Z,19
2017-08-28T14:38:06.733Z,19
2017-08-28T14:40:06.415Z,19
2017-08-28T14:42:09.698Z,19
2017-08-28T14:44:06.593Z,19
2017-08-28T14:46:07.328Z,19
2017-08-28T14:48:17.170Z,19
2017-08-28T14:50:07.073Z,19
2017-08-28T14:52:09.429Z,19
2017-08-28T14:54:07.131Z,19
2017-08-28T14:56:06.880Z,19
2017-08-28T14:58:06.534Z,19
2017-08-28T15:00:07.183Z,19
2017-08-28T15:02:07.029Z,19
2017-08-28T15:04:06.953Z,19
2017-08-28T15:06:06.688Z,19
2017-08-28T15:08:08.987Z,19
2017-08-28T15:10:11.724Z,19
2017-08-28T15:12:06.421Z,19
2017-08-28T15:14:12.188Z,19
2017-08-28T15:16:06.886Z,19
2017-08-28T15:18:06.780Z,19
2017-08-28T15:20:06.613Z,20
2017-08-28T15:22:12.406Z,20
2017-08-28T15:24:07.086Z,19
2017-08-28T15:26:06.894Z,19
2017-08-28T15:28:06.714Z,19
2017-08-28T15:30:06.430Z,20
2017-08-28T15:32:07.181Z,20
2017-08-28T15:34:06.890Z,20
2017-08-28T15:36:06.596Z,20
2017-08-28T15:38:07.315Z,20
2017-08-28T15:40:07.043Z,19
2017-08-28T15:42:06.743Z,20
2017-08-28T15:44:06.592Z,19
2017-08-28T15:46:09.800Z,20
2017-08-28T15:48:06.561Z,19
2017-08-28T15:50:07.306Z,19
2017-08-28T15:52:07.045Z,20
2017-08-28T15:54:06.774Z,19
2017-08-28T15:56:06.655Z,20
2017-08-28T15:58:06.552Z,19
2017-08-28T16:00:07.295Z,19
2017-08-28T16:02:12.254Z,19
2017-08-28T16:04:09.542Z,18
2017-08-28T16:06:10.645Z,20
2017-08-28T16:08:07.515Z,19
2017-08-28T16:10:07.181Z,20
2017-08-28T16:12:06.908Z,19
2017-08-28T16:14:11.590Z,19
2017-08-28T16:16:07.290Z,19
2017-08-28T16:18:07.173Z,19
2017-08-28T16:20:07.230Z,19
2017-08-28T16:22:09.464Z,20
2017-08-28T16:24:07.235Z,19
2017-08-28T16:26:06.965Z,19
2017-08-28T16:28:09.212Z,19
2017-08-28T16:30:06.908Z,19
2017-08-28T16:32:09.329Z,20
2017-08-28T16:34:06.995Z,19
2017-08-28T16:36:06.973Z,19
2017-08-28T16:38:06.741Z,19
2017-08-28T16:40:11.669Z,20
2017-08-28T16:42:07.381Z,19
2017-08-28T16:44:12.186Z,20
2017-08-28T16:46:06.850Z,19
2017-08-28T16:48:06.688Z,20
2017-08-28T16:50:06.501Z,20
2017-08-28T16:52:07.210Z,20
2017-08-28T16:54:09.443Z,20
2017-08-28T16:56:09.765Z,19
2017-08-28T16:58:09.020Z,20
2017-08-28T17:00:06.815Z,19
2017-08-28T17:02:06.697Z,20
2017-08-28T17:04:08.900Z,20
2017-08-28T17:06:06.556Z,20
2017-08-28T17:08:07.396Z,20
2017-08-28T17:10:09.718Z,21
2017-08-28T17:12:09.026Z,20
2017-08-28T17:14:12.028Z,20
2017-08-28T17:16:06.681Z,19
2017-08-28T17:18:09.276Z,21
2017-08-28T17:20:09.482Z,20
2017-08-28T17:22:07.230Z,20
2017-08-28T17:24:06.905Z,21
2017-08-28T17:26:14.553Z,21
2017-08-28T17:28:07.509Z,20
2017-08-28T17:30:07.243Z,21
2017-08-28T17:32:14.897Z,20
2017-08-28T17:34:06.594Z,20
2017-08-28T17:36:09.995Z,21
2017-08-28T17:38:16.963Z,21
2017-08-28T17:40:14.421Z,21
2017-08-28T17:42:07.271Z,21
2017-08-28T17:44:07.116Z,21
2017-08-28T17:46:09.421Z,21
2017-08-28T17:48:07.171Z,20
2017-08-28T17:50:09.425Z,21
2017-08-28T17:52:08.170Z,21
2017-08-28T17:54:09.410Z,21
2017-08-28T17:56:09.618Z,21
2017-08-28T17:58:07.325Z,21
2017-08-28T18:00:08.088Z,21
2017-08-28T18:02:09.383Z,21
2017-08-28T18:04:07.263Z,21
2017-08-28T18:06:06.993Z,21
2017-08-28T18:08:09.408Z,21
2017-08-28T18:10:07.558Z,21
2017-08-28T18:12:09.885Z,21
2017-08-28T18:14:07.107Z,21
2017-08-28T18:16:09.560Z,21
2017-08-28T18:18:09.005Z,21
2017-08-28T18:20:14.541Z,21
2017-08-28T18:22:09.788Z,21
2017-08-28T18:24:09.076Z,21
2017-08-28T18:26:07.210Z,21
2017-08-28T18:28:06.908Z,21
2017-08-28T18:30:06.624Z,21
2017-08-28T18:32:07.530Z,21
2017-08-28T18:34:07.412Z,21
2017-08-28T18:36:10.080Z,21
2017-08-28T18:38:06.840Z,21
2017-08-28T18:40:09.070Z,21
2017-08-28T18:42:09.249Z,21
2017-08-28T18:44:06.963Z,21
2017-08-28T18:46:12.331Z,21
2017-08-28T18:48:09.684Z,22
2017-08-28T18:50:06.733Z,21
2017-08-28T18:52:06.469Z,21
2017-08-28T18:54:09.707Z,22
2017-08-28T18:56:06.517Z,22
2017-08-28T18:58:07.378Z,23
2017-08-28T19:00:09.639Z,22
2017-08-28T19:02:13.257Z,22
2017-08-28T19:04:07.122Z,23
2017-08-28T19:06:11.831Z,23
2017-08-28T19:08:06.624Z,23
2017-08-28T19:10:07.396Z,24
2017-08-28T19:12:07.156Z,24
2017-08-28T19:14:11.995Z,24
2017-08-28T19:16:09.308Z,24
2017-08-28T19:18:09.694Z,24
2017-08-28T19:20:12.386Z,22
2017-08-28T19:22:07.053Z,22
2017-08-28T19:24:09.258Z,24
2017-08-28T19:26:09.809Z,24
2017-08-28T19:28:09.055Z,23
2017-08-28T19:30:06.825Z,23
2017-08-28T19:32:06.725Z,24
2017-08-28T19:34:09.407Z,24
2017-08-28T19:36:07.166Z,24
2017-08-28T19:38:09.525Z,24
2017-08-28T19:40:07.234Z,24
2017-08-28T19:42:06.931Z,24
2017-08-28T19:44:06.880Z,24
2017-08-28T19:46:11.646Z,8
2017-08-28T19:48:07.342Z,24
2017-08-28T19:50:07.375Z,25
2017-08-28T19:52:07.065Z,25
2017-08-28T19:54:06.811Z,25
2017-08-28T19:56:07.589Z,25
2017-08-28T19:58:12.346Z,24
2017-08-28T20:00:09.640Z,24
2017-08-28T20:02:07.715Z,24
2017-08-28T20:04:06.449Z,25
2017-08-28T20:06:07.146Z,24
2017-08-28T20:08:06.975Z,25
2017-08-28T20:10:06.664Z,25
2017-08-28T20:12:12.387Z,24
2017-08-28T20:14:07.396Z,25
2017-08-28T20:16:09.668Z,25
2017-08-28T20:18:11.650Z,25
2017-08-28T20:20:07.411Z,25
2017-08-28T20:22:09.849Z,27
2017-08-28T20:24:11.726Z,25
2017-08-28T20:26:14.245Z,24
2017-08-28T20:28:06.966Z,25
2017-08-28T20:30:06.694Z,27
2017-08-28T20:32:10.692Z,25
2017-08-28T20:34:06.385Z,25
2017-08-28T20:36:14.705Z,25
2017-08-28T20:38:06.662Z,25
2017-08-28T20:40:12.705Z,25
2017-08-28T20:42:06.519Z,24
2017-08-28T20:44:09.731Z,27
2017-08-28T20:46:07.576Z,25
2017-08-28T20:48:07.482Z,25
2017-08-28T20:50:17.425Z,27
2017-08-28T20:52:09.716Z,25
2017-08-28T20:54:08.997Z,25
2017-08-28T20:56:06.816Z,25
2017-08-28T20:58:06.528Z,25
2017-08-28T21:00:09.708Z,25
2017-08-28T21:02:06.417Z,25
2017-08-28T21:04:07.414Z,25
2017-08-28T21:06:14.703Z,25
2017-08-28T21:08:06.658Z,25
2017-08-28T21:10:07.386Z,25
2017-08-28T21:12:12.215Z,25
2017-08-28T21:14:17.082Z,25
2017-08-28T21:16:06.842Z,25
2017-08-28T21:18:06.691Z,27
2017-08-28T21:20:06.413Z,27
2017-08-28T21:22:14.660Z,25
2017-08-28T21:24:07.357Z,25
2017-08-28T21:26:07.204Z,27
2017-08-28T21:28:07.074Z,27
2017-08-28T21:30:06.780Z,27
2017-08-28T21:32:06.531Z,27
2017-08-28T21:34:07.347Z,27
2017-08-28T21:36:07.076Z,27
2017-08-28T21:38:16.982Z,28
2017-08-28T21:40:16.832Z,25
2017-08-28T21:42:06.549Z,25
2017-08-28T21:44:07.794Z,27
2017-08-28T21:46:09.032Z,27
2017-08-28T21:48:09.552Z,27
2017-08-28T21:50:07.407Z,27
2017-08-28T21:52:09.625Z,27
2017-08-28T21:54:10.081Z,25
2017-08-28T21:56:07.195Z,27
2017-08-28T21:58:07.214Z,28
2017-08-28T22:00:06.966Z,27
2017-08-28T22:02:09.357Z,27
2017-08-28T22:04:09.660Z,27
2017-08-28T22:06:09.903Z,27
2017-08-28T22:08:14.306Z,25
2017-08-28T22:10:09.616Z,25
2017-08-28T22:12:07.311Z,27
2017-08-28T22:14:07.386Z,27
2017-08-28T22:16:07.167Z,27
2017-08-28T22:18:07.071Z,27
2017-08-28T22:20:06.899Z,27
2017-08-28T22:22:11.632Z,27
2017-08-28T22:24:22.502Z,25
2017-08-28T22:26:07.533Z,25
2017-08-28T22:28:12.371Z,27
2017-08-28T22:30:07.041Z,27
2017-08-28T22:32:11.965Z,27
2017-08-28T22:34:06.629Z,27
2017-08-28T22:36:12.415Z,25
2017-08-28T22:38:09.727Z,27
2017-08-28T22:40:13.994Z,25
2017-08-28T22:42:11.810Z,27
2017-08-28T22:44:11.745Z,27
2017-08-28T22:46:06.431Z,25
2017-08-28T22:48:09.727Z,27
2017-08-28T22:50:06.751Z,27
2017-08-28T22:52:06.483Z,27
2017-08-28T22:54:09.734Z,28
2017-08-28T22:56:06.401Z,28
2017-08-28T22:58:07.110Z,27
2017-08-28T23:00:06.838Z,28
2017-08-28T23:02:14.224Z,27
2017-08-28T23:04:06.957Z,25
2017-08-28T23:06:06.645Z,27
2017-08-28T23:08:07.472Z,27
2017-08-28T23:10:07.118Z,27
2017-08-28T23:12:06.978Z,27
2017-08-28T23:14:12.694Z,27
2017-08-28T23:16:06.377Z,27
2017-08-28T23:18:07.322Z,27
2017-08-28T23:20:12.041Z,28
2017-08-28T23:22:06.842Z,27
2017-08-28T23:24:06.548Z,28
2017-08-28T23:26:07.479Z,27
2017-08-28T23:28:09.704Z,27
2017-08-28T23:30:13.976Z,28
2017-08-28T23:32:06.734Z,27
2017-08-28T23:38:09.852Z,29
2017-08-28T23:40:09.468Z,28
2017-08-28T23:42:07.376Z,28
2017-08-28T23:44:07.936Z,28
2017-08-28T23:46:06.638Z,28
2017-08-28T23:48:14.925Z,28
2017-08-28T23:50:06.962Z,28
2017-08-28T23:52:09.419Z,29
2017-08-28T23:54:07.440Z,27
2017-08-28T23:56:12.224Z,28
2017-08-28T23:58:06.957Z,29
